sensor_id;sensor_type;location;lat;lon;timestamp;P1;durP1;ratioP1;P2;durP2;ratioP2
53052;SDS011;38934;52.690;6.184;2022-12-18T00:01:56;74.40;;;27.02;;
53052;SDS011;38934;52.690;6.184;2022-12-18T00:04:24;67.53;;;26.05;;
53052;SDS011;38934;52.690;6.184;2022-12-18T00:06:51;80.22;;;28.25;;
53052;SDS011;38934;52.690;6.184;2022-12-18T00:09:17;64.78;;;25.38;;
53052;SDS011;38934;52.690;6.184;2022-12-18T00:11:43;76.25;;;27.02;;
53052;SDS011;38934;52.690;6.184;2022-12-18T00:14:09;73.35;;;26.15;;
53052;SDS011;38934;52.690;6.184;2022-12-18T00:16:36;75.63;;;27.70;;
53052;SDS011;38934;52.690;6.184;2022-12-18T00:19:02;70.75;;;26.63;;
53052;SDS011;38934;52.690;6.184;2022-12-18T00:21:29;75.30;;;27.65;;
53052;SDS011;38934;52.690;6.184;2022-12-18T00:23:57;71.82;;;27.58;;
53052;SDS011;38934;52.690;6.184;2022-12-18T00:26:27;70.55;;;26.35;;
53052;SDS011;38934;52.690;6.184;2022-12-18T00:28:55;69.88;;;26.52;;
53052;SDS011;38934;52.690;6.184;2022-12-18T00:31:23;68.63;;;27.40;;
53052;SDS011;38934;52.690;6.184;2022-12-18T00:33:49;79.25;;;28.50;;
53052;SDS011;38934;52.690;6.184;2022-12-18T00:36:20;70.05;;;27.38;;
53052;SDS011;38934;52.690;6.184;2022-12-18T00:38:51;70.95;;;26.77;;
53052;SDS011;38934;52.690;6.184;2022-12-18T00:41:17;75.60;;;27.95;;
53052;SDS011;38934;52.690;6.184;2022-12-18T00:44:04;71.38;;;28.27;;
53052;SDS011;38934;52.690;6.184;2022-12-18T00:46:31;81.28;;;27.20;;
53052;SDS011;38934;52.690;6.184;2022-12-18T00:48:57;74.38;;;28.50;;
53052;SDS011;38934;52.690;6.184;2022-12-18T00:51:23;74.85;;;28.00;;
53052;SDS011;38934;52.690;6.184;2022-12-18T00:53:49;80.00;;;29.88;;
53052;SDS011;38934;52.690;6.184;2022-12-18T00:56:15;76.68;;;28.70;;
53052;SDS011;38934;52.690;6.184;2022-12-18T00:58:41;72.38;;;29.10;;
53052;SDS011;38934;52.690;6.184;2022-12-18T01:01:06;79.72;;;28.95;;
53052;SDS011;38934;52.690;6.184;2022-12-18T01:03:32;79.32;;;30.77;;
53052;SDS011;38934;52.690;6.184;2022-12-18T01:05:58;85.35;;;31.02;;
53052;SDS011;38934;52.690;6.184;2022-12-18T01:08:23;75.95;;;29.20;;
53052;SDS011;38934;52.690;6.184;2022-12-18T01:10:49;86.53;;;32.10;;
53052;SDS011;38934;52.690;6.184;2022-12-18T01:13:14;83.25;;;30.50;;
53052;SDS011;38934;52.690;6.184;2022-12-18T01:15:40;81.20;;;30.17;;
53052;SDS011;38934;52.690;6.184;2022-12-18T01:18:12;83.60;;;29.80;;
53052;SDS011;38934;52.690;6.184;2022-12-18T01:20:37;70.78;;;28.45;;
53052;SDS011;38934;52.690;6.184;2022-12-18T01:23:03;81.15;;;29.77;;
53052;SDS011;38934;52.690;6.184;2022-12-18T01:25:28;77.78;;;28.10;;
53052;SDS011;38934;52.690;6.184;2022-12-18T01:27:54;88.07;;;29.38;;
53052;SDS011;38934;52.690;6.184;2022-12-18T01:30:20;80.85;;;30.10;;
53052;SDS011;38934;52.690;6.184;2022-12-18T01:32:45;77.82;;;30.45;;
53052;SDS011;38934;52.690;6.184;2022-12-18T01:35:11;81.53;;;30.70;;
53052;SDS011;38934;52.690;6.184;2022-12-18T01:37:36;79.20;;;29.73;;
53052;SDS011;38934;52.690;6.184;2022-12-18T01:40:02;91.22;;;30.48;;
53052;SDS011;38934;52.690;6.184;2022-12-18T01:42:28;81.78;;;29.80;;
53052;SDS011;38934;52.690;6.184;2022-12-18T01:45:01;80.10;;;29.38;;
53052;SDS011;38934;52.690;6.184;2022-12-18T01:47:28;74.80;;;28.92;;
53052;SDS011;38934;52.690;6.184;2022-12-18T01:52:55;78.43;;;28.95;;
53052;SDS011;38934;52.690;6.184;2022-12-18T01:55:29;74.13;;;29.20;;
53052;SDS011;38934;52.690;6.184;2022-12-18T01:58:00;80.30;;;30.33;;
53052;SDS011;38934;52.690;6.184;2022-12-18T02:00:26;75.22;;;29.38;;
53052;SDS011;38934;52.690;6.184;2022-12-18T02:02:52;77.20;;;28.67;;
53052;SDS011;38934;52.690;6.184;2022-12-18T02:06:03;68.68;;;28.73;;
53052;SDS011;38934;52.690;6.184;2022-12-18T02:08:22;73.60;;;28.83;;
53052;SDS011;38934;52.690;6.184;2022-12-18T02:18:45;65.43;;;26.55;;
53052;SDS011;38934;52.690;6.184;2022-12-18T02:21:27;72.28;;;27.80;;
53052;SDS011;38934;52.690;6.184;2022-12-18T02:27:04;69.28;;;27.48;;
53052;SDS011;38934;52.690;6.184;2022-12-18T02:29:40;67.57;;;27.92;;
53052;SDS011;38934;52.690;6.184;2022-12-18T02:32:12;69.35;;;27.55;;
53052;SDS011;38934;52.690;6.184;2022-12-18T02:34:41;70.22;;;26.48;;
53052;SDS011;38934;52.690;6.184;2022-12-18T02:37:10;74.28;;;28.02;;
53052;SDS011;38934;52.690;6.184;2022-12-18T02:39:40;72.15;;;27.77;;
53052;SDS011;38934;52.690;6.184;2022-12-18T02:42:08;68.80;;;27.00;;
53052;SDS011;38934;52.690;6.184;2022-12-18T02:44:34;74.35;;;29.55;;
53052;SDS011;38934;52.690;6.184;2022-12-18T02:47:08;70.28;;;28.92;;
53052;SDS011;38934;52.690;6.184;2022-12-18T02:49:42;68.05;;;27.65;;
53052;SDS011;38934;52.690;6.184;2022-12-18T02:52:31;75.40;;;28.63;;
53052;SDS011;38934;52.690;6.184;2022-12-18T02:55:17;64.72;;;25.67;;
53052;SDS011;38934;52.690;6.184;2022-12-18T02:57:58;74.25;;;26.83;;
53052;SDS011;38934;52.690;6.184;2022-12-18T03:00:44;69.45;;;27.70;;
53052;SDS011;38934;52.690;6.184;2022-12-18T03:03:26;70.10;;;27.83;;
53052;SDS011;38934;52.690;6.184;2022-12-18T03:06:04;68.45;;;28.73;;
53052;SDS011;38934;52.690;6.184;2022-12-18T03:08:39;61.95;;;26.33;;
53052;SDS011;38934;52.690;6.184;2022-12-18T03:11:09;69.75;;;26.45;;
53052;SDS011;38934;52.690;6.184;2022-12-18T03:13:46;76.18;;;28.02;;
53052;SDS011;38934;52.690;6.184;2022-12-18T03:16:18;61.15;;;25.20;;
53052;SDS011;38934;52.690;6.184;2022-12-18T03:18:51;63.50;;;26.48;;
53052;SDS011;38934;52.690;6.184;2022-12-18T03:21:23;67.60;;;27.50;;
53052;SDS011;38934;52.690;6.184;2022-12-18T03:23:54;63.67;;;25.88;;
53052;SDS011;38934;52.690;6.184;2022-12-18T03:26:23;68.78;;;27.20;;
53052;SDS011;38934;52.690;6.184;2022-12-18T03:28:54;65.40;;;26.00;;
53052;SDS011;38934;52.690;6.184;2022-12-18T03:31:24;70.47;;;27.30;;
53052;SDS011;38934;52.690;6.184;2022-12-18T03:33:54;62.33;;;24.90;;
53052;SDS011;38934;52.690;6.184;2022-12-18T03:36:22;68.10;;;26.10;;
53052;SDS011;38934;52.690;6.184;2022-12-18T03:38:48;66.53;;;26.50;;
53052;SDS011;38934;52.690;6.184;2022-12-18T03:44:40;68.78;;;26.00;;
53052;SDS011;38934;52.690;6.184;2022-12-18T03:49:49;63.75;;;24.63;;
53052;SDS011;38934;52.690;6.184;2022-12-18T03:54:49;62.28;;;25.02;;
53052;SDS011;38934;52.690;6.184;2022-12-18T03:57:21;59.17;;;25.08;;
53052;SDS011;38934;52.690;6.184;2022-12-18T03:59:50;56.90;;;24.27;;
53052;SDS011;38934;52.690;6.184;2022-12-18T04:02:22;60.05;;;25.33;;
53052;SDS011;38934;52.690;6.184;2022-12-18T04:04:50;59.88;;;23.50;;
53052;SDS011;38934;52.690;6.184;2022-12-18T04:07:18;67.70;;;26.23;;
53052;SDS011;38934;52.690;6.184;2022-12-18T04:09:46;59.95;;;23.77;;
53052;SDS011;38934;52.690;6.184;2022-12-18T04:12:13;63.13;;;26.35;;
53052;SDS011;38934;52.690;6.184;2022-12-18T04:14:39;57.55;;;25.80;;
53052;SDS011;38934;52.690;6.184;2022-12-18T04:17:05;53.00;;;24.70;;
53052;SDS011;38934;52.690;6.184;2022-12-18T04:19:30;63.63;;;24.48;;
53052;SDS011;38934;52.690;6.184;2022-12-18T04:21:56;63.15;;;25.70;;
53052;SDS011;38934;52.690;6.184;2022-12-18T04:24:21;57.15;;;23.08;;
53052;SDS011;38934;52.690;6.184;2022-12-18T04:26:47;61.08;;;26.92;;
53052;SDS011;38934;52.690;6.184;2022-12-18T04:29:13;61.63;;;25.40;;
53052;SDS011;38934;52.690;6.184;2022-12-18T04:31:39;62.47;;;24.77;;
53052;SDS011;38934;52.690;6.184;2022-12-18T04:34:04;58.25;;;23.52;;
53052;SDS011;38934;52.690;6.184;2022-12-18T04:36:30;59.97;;;23.83;;
53052;SDS011;38934;52.690;6.184;2022-12-18T04:38:55;53.17;;;22.08;;
53052;SDS011;38934;52.690;6.184;2022-12-18T04:41:22;56.42;;;23.05;;
53052;SDS011;38934;52.690;6.184;2022-12-18T04:43:48;51.25;;;23.38;;
53052;SDS011;38934;52.690;6.184;2022-12-18T04:46:14;58.25;;;24.63;;
53052;SDS011;38934;52.690;6.184;2022-12-18T04:48:39;51.40;;;23.42;;
53052;SDS011;38934;52.690;6.184;2022-12-18T04:51:06;54.95;;;23.70;;
53052;SDS011;38934;52.690;6.184;2022-12-18T04:53:32;57.50;;;23.52;;
53052;SDS011;38934;52.690;6.184;2022-12-18T04:56:05;56.80;;;22.67;;
53052;SDS011;38934;52.690;6.184;2022-12-18T04:58:33;52.00;;;23.55;;
53052;SDS011;38934;52.690;6.184;2022-12-18T05:01:01;57.80;;;24.45;;
53052;SDS011;38934;52.690;6.184;2022-12-18T05:03:29;57.55;;;24.67;;
53052;SDS011;38934;52.690;6.184;2022-12-18T05:05:54;50.22;;;22.63;;
53052;SDS011;38934;52.690;6.184;2022-12-18T05:08:20;54.47;;;22.17;;
53052;SDS011;38934;52.690;6.184;2022-12-18T05:10:46;55.28;;;23.25;;
53052;SDS011;38934;52.690;6.184;2022-12-18T05:13:11;53.10;;;22.75;;
53052;SDS011;38934;52.690;6.184;2022-12-18T05:15:37;48.85;;;22.10;;
53052;SDS011;38934;52.690;6.184;2022-12-18T05:18:03;57.35;;;23.23;;
53052;SDS011;38934;52.690;6.184;2022-12-18T05:20:29;58.85;;;24.45;;
53052;SDS011;38934;52.690;6.184;2022-12-18T05:22:55;53.17;;;22.23;;
53052;SDS011;38934;52.690;6.184;2022-12-18T05:25:21;49.80;;;23.45;;
53052;SDS011;38934;52.690;6.184;2022-12-18T05:27:47;50.83;;;22.85;;
53052;SDS011;38934;52.690;6.184;2022-12-18T05:30:13;52.55;;;21.55;;
53052;SDS011;38934;52.690;6.184;2022-12-18T05:32:40;55.25;;;21.13;;
53052;SDS011;38934;52.690;6.184;2022-12-18T05:35:07;44.20;;;21.05;;
53052;SDS011;38934;52.690;6.184;2022-12-18T05:37:35;49.80;;;22.48;;
53052;SDS011;38934;52.690;6.184;2022-12-18T05:40:02;47.38;;;22.02;;
53052;SDS011;38934;52.690;6.184;2022-12-18T05:42:28;47.22;;;21.33;;
53052;SDS011;38934;52.690;6.184;2022-12-18T05:44:54;52.83;;;21.17;;
53052;SDS011;38934;52.690;6.184;2022-12-18T05:47:19;51.05;;;20.73;;
53052;SDS011;38934;52.690;6.184;2022-12-18T05:49:45;49.38;;;21.60;;
53052;SDS011;38934;52.690;6.184;2022-12-18T05:52:12;47.22;;;21.38;;
53052;SDS011;38934;52.690;6.184;2022-12-18T05:54:37;47.05;;;23.15;;
53052;SDS011;38934;52.690;6.184;2022-12-18T05:57:04;44.92;;;21.80;;
53052;SDS011;38934;52.690;6.184;2022-12-18T05:59:29;51.25;;;22.35;;
53052;SDS011;38934;52.690;6.184;2022-12-18T06:01:55;51.70;;;22.20;;
53052;SDS011;38934;52.690;6.184;2022-12-18T06:04:20;53.40;;;21.60;;
53052;SDS011;38934;52.690;6.184;2022-12-18T06:06:47;47.35;;;21.40;;
53052;SDS011;38934;52.690;6.184;2022-12-18T06:09:14;46.83;;;21.60;;
53052;SDS011;38934;52.690;6.184;2022-12-18T06:11:39;48.58;;;22.13;;
53052;SDS011;38934;52.690;6.184;2022-12-18T06:14:05;52.25;;;21.67;;
53052;SDS011;38934;52.690;6.184;2022-12-18T06:16:31;53.63;;;21.85;;
53052;SDS011;38934;52.690;6.184;2022-12-18T06:18:58;57.40;;;22.30;;
53052;SDS011;38934;52.690;6.184;2022-12-18T06:21:24;45.67;;;21.15;;
53052;SDS011;38934;52.690;6.184;2022-12-18T06:23:50;48.00;;;22.02;;
53052;SDS011;38934;52.690;6.184;2022-12-18T06:26:17;49.08;;;22.17;;
53052;SDS011;38934;52.690;6.184;2022-12-18T06:28:43;49.63;;;21.85;;
53052;SDS011;38934;52.690;6.184;2022-12-18T06:31:09;53.50;;;23.83;;
53052;SDS011;38934;52.690;6.184;2022-12-18T06:33:35;53.53;;;22.80;;
53052;SDS011;38934;52.690;6.184;2022-12-18T06:36:11;51.70;;;22.38;;
53052;SDS011;38934;52.690;6.184;2022-12-18T06:38:38;52.05;;;22.67;;
53052;SDS011;38934;52.690;6.184;2022-12-18T06:41:07;55.13;;;23.52;;
53052;SDS011;38934;52.690;6.184;2022-12-18T06:43:34;55.20;;;21.73;;
53052;SDS011;38934;52.690;6.184;2022-12-18T06:46:00;45.35;;;20.73;;
53052;SDS011;38934;52.690;6.184;2022-12-18T06:48:26;44.28;;;20.77;;
53052;SDS011;38934;52.690;6.184;2022-12-18T06:50:52;46.65;;;21.50;;
53052;SDS011;38934;52.690;6.184;2022-12-18T06:53:17;53.47;;;20.83;;
53052;SDS011;38934;52.690;6.184;2022-12-18T06:55:43;53.15;;;21.25;;
53052;SDS011;38934;52.690;6.184;2022-12-18T06:58:09;48.70;;;21.05;;
53052;SDS011;38934;52.690;6.184;2022-12-18T07:00:35;49.95;;;21.73;;
53052;SDS011;38934;52.690;6.184;2022-12-18T07:03:01;44.88;;;20.98;;
53052;SDS011;38934;52.690;6.184;2022-12-18T07:05:27;47.63;;;20.35;;
53052;SDS011;38934;52.690;6.184;2022-12-18T07:07:53;49.15;;;21.80;;
53052;SDS011;38934;52.690;6.184;2022-12-18T07:10:19;45.50;;;20.60;;
53052;SDS011;38934;52.690;6.184;2022-12-18T07:12:45;50.63;;;21.73;;
53052;SDS011;38934;52.690;6.184;2022-12-18T07:15:12;48.47;;;21.92;;
53052;SDS011;38934;52.690;6.184;2022-12-18T07:17:38;53.53;;;22.17;;
53052;SDS011;38934;52.690;6.184;2022-12-18T07:20:03;46.00;;;19.58;;
53052;SDS011;38934;52.690;6.184;2022-12-18T07:22:29;45.60;;;21.30;;
53052;SDS011;38934;52.690;6.184;2022-12-18T07:24:55;42.60;;;20.10;;
53052;SDS011;38934;52.690;6.184;2022-12-18T07:27:21;44.53;;;21.13;;
53052;SDS011;38934;52.690;6.184;2022-12-18T07:29:47;55.30;;;21.65;;
53052;SDS011;38934;52.690;6.184;2022-12-18T07:32:13;40.28;;;20.13;;
53052;SDS011;38934;52.690;6.184;2022-12-18T07:34:41;43.60;;;21.17;;
53052;SDS011;38934;52.690;6.184;2022-12-18T07:37:07;49.80;;;21.77;;
53052;SDS011;38934;52.690;6.184;2022-12-18T07:39:32;46.63;;;20.08;;
53052;SDS011;38934;52.690;6.184;2022-12-18T07:41:59;46.72;;;20.42;;
53052;SDS011;38934;52.690;6.184;2022-12-18T07:44:43;41.65;;;20.02;;
53052;SDS011;38934;52.690;6.184;2022-12-18T07:47:09;40.97;;;20.25;;
53052;SDS011;38934;52.690;6.184;2022-12-18T07:49:35;44.03;;;19.98;;
53052;SDS011;38934;52.690;6.184;2022-12-18T07:52:00;41.80;;;20.50;;
53052;SDS011;38934;52.690;6.184;2022-12-18T07:54:26;41.20;;;19.70;;
53052;SDS011;38934;52.690;6.184;2022-12-18T07:56:52;44.05;;;21.05;;
53052;SDS011;38934;52.690;6.184;2022-12-18T07:59:17;41.65;;;19.67;;
53052;SDS011;38934;52.690;6.184;2022-12-18T08:01:43;43.45;;;19.77;;
53052;SDS011;38934;52.690;6.184;2022-12-18T08:04:09;44.67;;;21.30;;
53052;SDS011;38934;52.690;6.184;2022-12-18T08:06:36;40.13;;;19.95;;
53052;SDS011;38934;52.690;6.184;2022-12-18T08:09:02;41.30;;;21.10;;
53052;SDS011;38934;52.690;6.184;2022-12-18T08:11:28;44.47;;;21.15;;
53052;SDS011;38934;52.690;6.184;2022-12-18T08:13:55;42.10;;;19.48;;
53052;SDS011;38934;52.690;6.184;2022-12-18T08:16:21;45.75;;;21.25;;
53052;SDS011;38934;52.690;6.184;2022-12-18T08:18:47;42.28;;;19.95;;
53052;SDS011;38934;52.690;6.184;2022-12-18T08:21:14;39.17;;;19.30;;
53052;SDS011;38934;52.690;6.184;2022-12-18T08:23:46;38.88;;;20.88;;
53052;SDS011;38934;52.690;6.184;2022-12-18T08:26:12;41.50;;;20.08;;
53052;SDS011;38934;52.690;6.184;2022-12-18T08:28:38;38.03;;;19.90;;
53052;SDS011;38934;52.690;6.184;2022-12-18T08:31:04;34.10;;;19.05;;
53052;SDS011;38934;52.690;6.184;2022-12-18T08:33:30;38.78;;;18.73;;
53052;SDS011;38934;52.690;6.184;2022-12-18T08:35:57;38.20;;;19.52;;
53052;SDS011;38934;52.690;6.184;2022-12-18T08:38:23;42.13;;;19.27;;
53052;SDS011;38934;52.690;6.184;2022-12-18T08:40:49;37.20;;;19.35;;
53052;SDS011;38934;52.690;6.184;2022-12-18T08:43:19;36.97;;;20.13;;
53052;SDS011;38934;52.690;6.184;2022-12-18T08:46:03;36.58;;;19.38;;
53052;SDS011;38934;52.690;6.184;2022-12-18T08:48:29;38.85;;;18.92;;
53052;SDS011;38934;52.690;6.184;2022-12-18T08:50:56;35.55;;;17.98;;
53052;SDS011;38934;52.690;6.184;2022-12-18T08:53:22;37.22;;;19.13;;
53052;SDS011;38934;52.690;6.184;2022-12-18T08:55:51;34.80;;;18.58;;
53052;SDS011;38934;52.690;6.184;2022-12-18T08:58:17;37.20;;;20.20;;
53052;SDS011;38934;52.690;6.184;2022-12-18T09:00:43;38.72;;;18.63;;
53052;SDS011;38934;52.690;6.184;2022-12-18T09:03:13;35.45;;;18.33;;
53052;SDS011;38934;52.690;6.184;2022-12-18T09:05:40;33.97;;;17.58;;
53052;SDS011;38934;52.690;6.184;2022-12-18T09:08:06;35.65;;;17.05;;
53052;SDS011;38934;52.690;6.184;2022-12-18T09:10:32;34.17;;;18.35;;
53052;SDS011;38934;52.690;6.184;2022-12-18T09:12:57;37.88;;;16.88;;
53052;SDS011;38934;52.690;6.184;2022-12-18T09:15:23;29.20;;;17.08;;
53052;SDS011;38934;52.690;6.184;2022-12-18T09:17:49;37.90;;;17.98;;
53052;SDS011;38934;52.690;6.184;2022-12-18T09:20:15;33.78;;;17.33;;
53052;SDS011;38934;52.690;6.184;2022-12-18T09:22:41;28.65;;;16.23;;
53052;SDS011;38934;52.690;6.184;2022-12-18T09:25:07;29.80;;;16.13;;
53052;SDS011;38934;52.690;6.184;2022-12-18T09:27:33;28.88;;;16.70;;
53052;SDS011;38934;52.690;6.184;2022-12-18T09:29:59;28.20;;;15.40;;
53052;SDS011;38934;52.690;6.184;2022-12-18T09:32:24;28.63;;;15.48;;
53052;SDS011;38934;52.690;6.184;2022-12-18T09:34:50;29.90;;;16.00;;
53052;SDS011;38934;52.690;6.184;2022-12-18T09:37:16;24.50;;;14.70;;
53052;SDS011;38934;52.690;6.184;2022-12-18T09:39:41;25.60;;;15.43;;
53052;SDS011;38934;52.690;6.184;2022-12-18T09:42:08;25.80;;;14.77;;
53052;SDS011;38934;52.690;6.184;2022-12-18T09:44:43;24.30;;;14.43;;
53052;SDS011;38934;52.690;6.184;2022-12-18T09:47:18;27.52;;;14.18;;
53052;SDS011;38934;52.690;6.184;2022-12-18T09:49:56;23.88;;;14.35;;
53052;SDS011;38934;52.690;6.184;2022-12-18T09:52:35;25.95;;;14.85;;
53052;SDS011;38934;52.690;6.184;2022-12-18T09:57:57;23.58;;;13.75;;
53052;SDS011;38934;52.690;6.184;2022-12-18T10:00:30;20.92;;;13.98;;
53052;SDS011;38934;52.690;6.184;2022-12-18T10:02:58;21.90;;;13.38;;
53052;SDS011;38934;52.690;6.184;2022-12-18T10:05:40;23.02;;;14.38;;
53052;SDS011;38934;52.690;6.184;2022-12-18T10:08:26;24.55;;;13.75;;
53052;SDS011;38934;52.690;6.184;2022-12-18T10:10:57;26.23;;;13.68;;
53052;SDS011;38934;52.690;6.184;2022-12-18T10:16:50;20.90;;;13.40;;
53052;SDS011;38934;52.690;6.184;2022-12-18T10:19:47;27.05;;;13.18;;
53052;SDS011;38934;52.690;6.184;2022-12-18T10:27:56;20.55;;;12.95;;
53052;SDS011;38934;52.690;6.184;2022-12-18T10:30:25;20.60;;;12.38;;
53052;SDS011;38934;52.690;6.184;2022-12-18T10:32:51;20.23;;;12.50;;
53052;SDS011;38934;52.690;6.184;2022-12-18T10:38:00;18.80;;;11.73;;
53052;SDS011;38934;52.690;6.184;2022-12-18T10:40:47;19.40;;;11.65;;
53052;SDS011;38934;52.690;6.184;2022-12-18T10:46:25;27.30;;;11.30;;
53052;SDS011;38934;52.690;6.184;2022-12-18T10:51:18;19.67;;;10.82;;
53052;SDS011;38934;52.690;6.184;2022-12-18T10:54:12;16.67;;;10.82;;
53052;SDS011;38934;52.690;6.184;2022-12-18T10:56:44;19.45;;;10.93;;
53052;SDS011;38934;52.690;6.184;2022-12-18T10:59:11;16.05;;;10.27;;
53052;SDS011;38934;52.690;6.184;2022-12-18T11:01:52;17.98;;;10.40;;
53052;SDS011;38934;52.690;6.184;2022-12-18T11:04:23;17.35;;;10.60;;
53052;SDS011;38934;52.690;6.184;2022-12-18T11:09:31;15.98;;;9.65;;
53052;SDS011;38934;52.690;6.184;2022-12-18T11:11:59;15.27;;;9.90;;
53052;SDS011;38934;52.690;6.184;2022-12-18T11:17:20;18.70;;;9.90;;
53052;SDS011;38934;52.690;6.184;2022-12-18T11:19:53;17.00;;;9.88;;
53052;SDS011;38934;52.690;6.184;2022-12-18T11:22:30;15.80;;;9.07;;
53052;SDS011;38934;52.690;6.184;2022-12-18T11:25:19;15.75;;;9.40;;
53052;SDS011;38934;52.690;6.184;2022-12-18T11:27:58;18.48;;;10.55;;
53052;SDS011;38934;52.690;6.184;2022-12-18T11:30:27;16.17;;;10.20;;
53052;SDS011;38934;52.690;6.184;2022-12-18T11:33:05;13.95;;;9.10;;
53052;SDS011;38934;52.690;6.184;2022-12-18T11:35:50;16.60;;;9.60;;
53052;SDS011;38934;52.690;6.184;2022-12-18T11:38:26;15.65;;;8.48;;
53052;SDS011;38934;52.690;6.184;2022-12-18T11:43:42;16.98;;;9.48;;
53052;SDS011;38934;52.690;6.184;2022-12-18T11:46:24;17.92;;;9.40;;
53052;SDS011;38934;52.690;6.184;2022-12-18T11:49:08;16.83;;;9.57;;
53052;SDS011;38934;52.690;6.184;2022-12-18T11:51:41;15.05;;;9.25;;
53052;SDS011;38934;52.690;6.184;2022-12-18T11:54:15;15.50;;;9.93;;
53052;SDS011;38934;52.690;6.184;2022-12-18T11:56:44;15.90;;;8.73;;
53052;SDS011;38934;52.690;6.184;2022-12-18T11:59:32;16.23;;;9.95;;
53052;SDS011;38934;52.690;6.184;2022-12-18T12:02:12;14.52;;;9.63;;
53052;SDS011;38934;52.690;6.184;2022-12-18T12:07:58;14.02;;;9.23;;
53052;SDS011;38934;52.690;6.184;2022-12-18T12:30:35;14.07;;;8.45;;
53052;SDS011;38934;52.690;6.184;2022-12-18T12:33:33;12.93;;;8.85;;
53052;SDS011;38934;52.690;6.184;2022-12-18T12:36:17;14.18;;;8.23;;
53052;SDS011;38934;52.690;6.184;2022-12-18T12:39:08;14.05;;;8.48;;
53052;SDS011;38934;52.690;6.184;2022-12-18T12:41:39;13.95;;;8.13;;
53052;SDS011;38934;52.690;6.184;2022-12-18T12:44:26;13.65;;;8.80;;
53052;SDS011;38934;52.690;6.184;2022-12-18T12:46:56;12.93;;;8.60;;
53052;SDS011;38934;52.690;6.184;2022-12-18T12:49:29;15.57;;;8.93;;
53052;SDS011;38934;52.690;6.184;2022-12-18T12:51:59;11.10;;;7.70;;
53052;SDS011;38934;52.690;6.184;2022-12-18T12:54:30;12.90;;;8.23;;
53052;SDS011;38934;52.690;6.184;2022-12-18T12:57:00;14.30;;;8.18;;
53052;SDS011;38934;52.690;6.184;2022-12-18T13:02:29;12.10;;;7.53;;
53052;SDS011;38934;52.690;6.184;2022-12-18T13:07:41;13.43;;;8.25;;
53052;SDS011;38934;52.690;6.184;2022-12-18T13:15:32;12.98;;;8.27;;
53052;SDS011;38934;52.690;6.184;2022-12-18T13:18:11;12.67;;;8.83;;
53052;SDS011;38934;52.690;6.184;2022-12-18T13:21:12;13.40;;;8.48;;
53052;SDS011;38934;52.690;6.184;2022-12-18T13:23:54;12.93;;;8.30;;
53052;SDS011;38934;52.690;6.184;2022-12-18T13:28:52;12.20;;;8.10;;
53052;SDS011;38934;52.690;6.184;2022-12-18T13:36:39;12.43;;;8.05;;
53052;SDS011;38934;52.690;6.184;2022-12-18T13:39:11;13.48;;;8.48;;
53052;SDS011;38934;52.690;6.184;2022-12-18T13:41:43;12.82;;;8.13;;
53052;SDS011;38934;52.690;6.184;2022-12-18T13:46:50;13.27;;;8.27;;
53052;SDS011;38934;52.690;6.184;2022-12-18T13:52:22;13.38;;;8.18;;
53052;SDS011;38934;52.690;6.184;2022-12-18T13:54:59;11.27;;;7.68;;
53052;SDS011;38934;52.690;6.184;2022-12-18T13:57:31;11.95;;;7.90;;
53052;SDS011;38934;52.690;6.184;2022-12-18T13:59:59;11.38;;;7.78;;
53052;SDS011;38934;52.690;6.184;2022-12-18T14:05:20;12.18;;;7.78;;
53052;SDS011;38934;52.690;6.184;2022-12-18T14:08:01;11.50;;;8.18;;
53052;SDS011;38934;52.690;6.184;2022-12-18T14:10:33;15.63;;;8.50;;
53052;SDS011;38934;52.690;6.184;2022-12-18T14:13:01;10.63;;;7.15;;
53052;SDS011;38934;52.690;6.184;2022-12-18T14:15:41;10.13;;;7.38;;
53052;SDS011;38934;52.690;6.184;2022-12-18T14:20:54;9.88;;;7.25;;
53052;SDS011;38934;52.690;6.184;2022-12-18T14:26:01;11.85;;;7.43;;
53052;SDS011;38934;52.690;6.184;2022-12-18T14:28:29;12.40;;;8.30;;
53052;SDS011;38934;52.690;6.184;2022-12-18T14:30:55;11.50;;;7.45;;
53052;SDS011;38934;52.690;6.184;2022-12-18T14:33:25;14.43;;;7.43;;
53052;SDS011;38934;52.690;6.184;2022-12-18T14:36:03;10.90;;;8.07;;
53052;SDS011;38934;52.690;6.184;2022-12-18T14:41:09;12.48;;;7.50;;
53052;SDS011;38934;52.690;6.184;2022-12-18T14:43:39;12.23;;;8.15;;
53052;SDS011;38934;52.690;6.184;2022-12-18T14:51:56;13.70;;;8.30;;
53052;SDS011;38934;52.690;6.184;2022-12-18T14:54:30;12.18;;;7.63;;
53052;SDS011;38934;52.690;6.184;2022-12-18T14:57:16;12.57;;;7.75;;
53052;SDS011;38934;52.690;6.184;2022-12-18T14:59:49;13.93;;;8.00;;
53052;SDS011;38934;52.690;6.184;2022-12-18T15:05:03;13.32;;;7.80;;
53052;SDS011;38934;52.690;6.184;2022-12-18T15:07:41;13.07;;;8.48;;
53052;SDS011;38934;52.690;6.184;2022-12-18T15:12:47;12.60;;;8.02;;
53052;SDS011;38934;52.690;6.184;2022-12-18T15:20:38;15.30;;;7.43;;
53052;SDS011;38934;52.690;6.184;2022-12-18T15:23:18;13.40;;;8.38;;
53052;SDS011;38934;52.690;6.184;2022-12-18T15:25:54;12.35;;;8.05;;
53052;SDS011;38934;52.690;6.184;2022-12-18T15:33:35;12.23;;;8.20;;
53052;SDS011;38934;52.690;6.184;2022-12-18T15:36:08;12.13;;;7.80;;
53052;SDS011;38934;52.690;6.184;2022-12-18T15:38:35;12.93;;;8.45;;
53052;SDS011;38934;52.690;6.184;2022-12-18T15:41:01;11.95;;;7.82;;
53052;SDS011;38934;52.690;6.184;2022-12-18T15:43:28;12.00;;;8.60;;
53052;SDS011;38934;52.690;6.184;2022-12-18T15:48:29;11.60;;;7.68;;
53052;SDS011;38934;52.690;6.184;2022-12-18T15:50:55;13.18;;;8.25;;
53052;SDS011;38934;52.690;6.184;2022-12-18T15:53:24;10.63;;;7.55;;
53052;SDS011;38934;52.690;6.184;2022-12-18T15:55:52;13.30;;;8.10;;
53052;SDS011;38934;52.690;6.184;2022-12-18T15:58:37;11.23;;;7.80;;
53052;SDS011;38934;52.690;6.184;2022-12-18T16:01:03;12.32;;;7.63;;
53052;SDS011;38934;52.690;6.184;2022-12-18T16:03:29;12.35;;;7.85;;
53052;SDS011;38934;52.690;6.184;2022-12-18T16:05:55;14.93;;;8.68;;
53052;SDS011;38934;52.690;6.184;2022-12-18T16:08:20;12.77;;;8.18;;
53052;SDS011;38934;52.690;6.184;2022-12-18T16:10:46;12.77;;;8.00;;
53052;SDS011;38934;52.690;6.184;2022-12-18T16:13:12;11.73;;;8.00;;
53052;SDS011;38934;52.690;6.184;2022-12-18T16:15:40;12.98;;;8.00;;
53052;SDS011;38934;52.690;6.184;2022-12-18T16:18:06;12.93;;;8.30;;
53052;SDS011;38934;52.690;6.184;2022-12-18T16:20:32;10.65;;;7.60;;
53052;SDS011;38934;52.690;6.184;2022-12-18T16:22:57;12.85;;;8.20;;
53052;SDS011;38934;52.690;6.184;2022-12-18T16:25:24;10.43;;;7.57;;
53052;SDS011;38934;52.690;6.184;2022-12-18T16:27:52;12.65;;;8.18;;
53052;SDS011;38934;52.690;6.184;2022-12-18T16:30:30;11.10;;;7.88;;
53052;SDS011;38934;52.690;6.184;2022-12-18T16:32:57;12.15;;;7.88;;
53052;SDS011;38934;52.690;6.184;2022-12-18T16:35:23;11.80;;;8.02;;
53052;SDS011;38934;52.690;6.184;2022-12-18T16:37:49;14.00;;;8.48;;
53052;SDS011;38934;52.690;6.184;2022-12-18T16:40:15;11.63;;;8.13;;
53052;SDS011;38934;52.690;6.184;2022-12-18T16:42:43;13.18;;;7.97;;
53052;SDS011;38934;52.690;6.184;2022-12-18T16:45:11;11.95;;;8.05;;
53052;SDS011;38934;52.690;6.184;2022-12-18T16:47:39;13.40;;;8.25;;
53052;SDS011;38934;52.690;6.184;2022-12-18T16:50:05;14.32;;;7.97;;
53052;SDS011;38934;52.690;6.184;2022-12-18T16:52:32;13.02;;;8.82;;
53052;SDS011;38934;52.690;6.184;2022-12-18T16:54:58;13.23;;;8.80;;